North Prairie, Texas
Current Conditions -  °F | °C
As of 4:35 PM on Friday 28 Nov 2014 (Local Time) from KPWG Reporting Station
Clear Clear  
Wind Chill: 70°   Ceiling: Unl
Heat Index: 70°   Visibility: 10mi
Dew Point: 46°   Wind: 14mph
Humidity: 43%   Direction: 190°S
Pressure: 30.09"   Gusts: 23mph
Location:  31.2985°N, 97.112°W
Report Text: KPWG 282235Z AUTO 19012G20KT 10SM CLR 21/08 A3009 RMK AO1
Loading
Personal Weather Stations






























Interactive Weather Map New forecast layout! Learn more

10-Day Weather Forecast

Advertisements
Track Severe Weather on mobile